createdAt,value
2022-08-08T00:07:09.029Z,15
2022-08-08T00:17:07.013Z,15
2022-08-08T00:27:08.708Z,14.8
2022-08-08T00:37:45.650Z,14.5
2022-08-08T00:47:13.981Z,14.5
2022-08-08T01:07:16.741Z,14.3
2022-08-08T01:17:18.755Z,14.1
2022-08-08T02:07:36.942Z,13.5
2022-08-08T02:47:39.378Z,12.8
2022-08-08T03:17:51.950Z,12.5
2022-08-08T03:27:47.871Z,12.5
2022-08-08T03:38:00.388Z,12.3
2022-08-08T04:38:04.824Z,12.2
2022-08-08T05:08:12.627Z,13.6
2022-08-08T05:38:30.963Z,14.1
2022-08-08T05:58:32.650Z,14.4
2022-08-08T06:18:26.629Z,15
2022-08-08T06:28:28.957Z,15.1
2022-08-08T06:38:30.601Z,15.5
2022-08-08T07:28:41.252Z,18.3
2022-08-08T07:38:43.183Z,18.9
2022-08-08T07:58:46.916Z,19.4
2022-08-08T08:08:55.741Z,19.4
2022-08-08T08:18:58.229Z,20.3
2022-08-08T08:39:02.331Z,20.8
2022-08-08T08:48:57.406Z,21.1
2022-08-08T08:59:01.250Z,21.8
2022-08-08T09:09:19.131Z,21.4
2022-08-08T09:29:12.616Z,22.1
2022-08-08T09:39:10.395Z,22
2022-08-08T09:59:43.057Z,22.9
2022-08-08T10:29:20.730Z,22.7
2022-08-08T10:39:23.207Z,22.3
2022-08-08T10:59:25.543Z,22.4
2022-08-08T11:09:27.562Z,24
2022-08-08T11:29:41.713Z,24.1
2022-08-08T11:39:41.764Z,25.2
2022-08-08T11:49:37.296Z,24.4
2022-08-08T11:59:58.050Z,24.6
2022-08-08T12:09:57.210Z,24.7
2022-08-08T12:19:51.493Z,24.4
2022-08-08T12:29:46.021Z,24
2022-08-08T12:39:56.360Z,24.9
2022-08-08T12:49:50.550Z,25
2022-08-08T13:20:04.206Z,24.3
2022-08-08T13:40:00.923Z,25.6
2022-08-08T13:50:34.486Z,25.5
2022-08-08T13:50:38.106Z,25.6
2022-08-08T14:00:12.137Z,25.7
2022-08-08T14:10:17.037Z,25.4
2022-08-08T14:20:57.169Z,25.9
2022-08-08T14:30:18.848Z,25.8
2022-08-08T14:40:20.487Z,25.9
2022-08-08T14:50:37.870Z,26
2022-08-08T15:00:24.968Z,25.8
2022-08-08T15:10:34.555Z,26.3
2022-08-08T15:20:29.334Z,25.6
2022-08-08T15:30:31.145Z,25.7
2022-08-08T15:40:33.631Z,25.4
2022-08-08T15:50:35.308Z,25.7
2022-08-08T16:00:47.235Z,25.3
2022-08-08T16:13:06.719Z,25.8
2022-08-08T16:30:52.017Z,25
2022-08-08T16:40:47.110Z,25.3
2022-08-08T16:50:49.155Z,24.9
2022-08-08T17:00:51.861Z,24.7
2022-08-08T17:21:03.076Z,24.5
2022-08-08T17:31:11.802Z,24.3
2022-08-08T17:40:59.552Z,24.1
2022-08-08T17:51:08.991Z,24
2022-08-08T18:01:04.323Z,23.9
2022-08-08T18:11:06.316Z,23.5
2022-08-08T18:21:10.516Z,23.3
2022-08-08T18:31:11.259Z,23.1
2022-08-08T18:41:13.588Z,22.8
2022-08-08T18:51:33.657Z,22.7
2022-08-08T19:02:14.131Z,22.2
2022-08-08T19:11:27.423Z,21.9
2022-08-08T19:21:29.702Z,21.6
2022-08-08T19:31:31.146Z,21.4
2022-08-08T19:41:27.310Z,21.1
2022-08-08T19:51:34.434Z,20.9
2022-08-08T20:01:50.570Z,20.6
2022-08-08T20:11:33.627Z,20.3
2022-08-08T20:21:37.236Z,20
2022-08-08T20:31:47.423Z,19.8
2022-08-08T20:41:41.209Z,19.6
2022-08-08T20:51:41.329Z,19.4
2022-08-08T21:01:44.505Z,19.3
2022-08-08T21:11:50.316Z,19.1
2022-08-08T21:21:47.974Z,19
2022-08-08T21:54:16.956Z,18.6
2022-08-08T22:01:55.937Z,18.5
2022-08-08T22:12:03.257Z,18.3
2022-08-08T22:21:59.447Z,18.2
2022-08-08T22:52:05.632Z,17.6
2022-08-08T23:02:12.636Z,17.3
2022-08-08T23:22:12.162Z,16.7
2022-08-08T23:32:14.324Z,16.5
2022-08-08T23:42:16.009Z,16.5
2022-08-08T23:52:18.242Z,16.4
